createdAt,value
2023-03-17T00:01:54.673Z,3.28
2023-03-17T00:04:24.561Z,3.20
2023-03-17T00:06:53.598Z,3.03
2023-03-17T00:09:22.578Z,3.10
2023-03-17T00:11:51.595Z,3.22
2023-03-17T00:14:20.773Z,3.38
2023-03-17T00:16:52.642Z,3.00
2023-03-17T00:19:27.497Z,3.33
2023-03-17T00:21:56.085Z,3.00
2023-03-17T00:24:24.358Z,3.30
2023-03-17T00:26:52.698Z,3.30
2023-03-17T00:29:21.071Z,3.10
2023-03-17T00:31:50.783Z,3.28
2023-03-17T00:34:20.461Z,3.20
2023-03-17T00:36:50.721Z,3.15
2023-03-17T00:39:19.175Z,2.90
2023-03-17T00:41:50.403Z,3.08
2023-03-17T00:44:18.592Z,3.42
2023-03-17T00:46:47.109Z,3.33
2023-03-17T00:49:19.320Z,2.92
2023-03-17T00:51:47.922Z,3.00
2023-03-17T00:54:16.380Z,3.28
2023-03-17T00:56:45.141Z,3.50
2023-03-17T00:59:21.791Z,3.13
2023-03-17T01:01:50.032Z,3.20
2023-03-17T01:04:19.949Z,2.80
2023-03-17T01:06:48.279Z,3.10
2023-03-17T01:09:18.432Z,3.22
2023-03-17T01:11:48.204Z,3.08
2023-03-17T01:14:16.744Z,2.90
2023-03-17T01:16:45.180Z,3.10
2023-03-17T01:19:14.253Z,3.05
2023-03-17T01:21:43.714Z,2.83
2023-03-17T01:24:11.700Z,2.90
2023-03-17T01:26:40.442Z,2.90
2023-03-17T01:29:08.659Z,3.22
2023-03-17T01:31:37.406Z,2.85
2023-03-17T01:34:06.188Z,3.10
2023-03-17T01:36:34.319Z,2.90
2023-03-17T01:39:05.415Z,3.45
2023-03-17T01:41:35.403Z,3.05
2023-03-17T01:44:03.453Z,2.80
2023-03-17T01:46:34.176Z,3.28
2023-03-17T01:49:17.162Z,2.85
2023-03-17T01:51:52.993Z,3.15
2023-03-17T01:54:28.138Z,2.95
2023-03-17T01:56:58.878Z,3.17
2023-03-17T01:59:29.710Z,2.67
2023-03-17T02:02:03.605Z,2.50
2023-03-17T02:04:32.669Z,2.60
2023-03-17T02:07:00.800Z,2.60
2023-03-17T02:09:31.584Z,2.95
2023-03-17T02:12:02.326Z,2.85
2023-03-17T02:14:30.457Z,2.83
2023-03-17T02:16:58.505Z,2.47
2023-03-17T02:19:26.588Z,3.13
2023-03-17T02:21:58.026Z,2.97
2023-03-17T02:24:37.151Z,3.20
2023-03-17T02:27:09.636Z,2.90
2023-03-17T02:29:37.927Z,2.53
2023-03-17T02:32:06.922Z,2.92
2023-03-17T02:34:35.812Z,2.83
2023-03-17T02:37:05.661Z,2.40
2023-03-17T02:39:33.691Z,2.72
2023-03-17T02:42:02.010Z,2.65
2023-03-17T02:44:29.989Z,2.80
2023-03-17T02:46:58.446Z,2.53
2023-03-17T02:49:27.216Z,2.60
2023-03-17T02:51:55.948Z,2.75
2023-03-17T02:54:25.638Z,2.60
2023-03-17T02:56:53.901Z,2.90
2023-03-17T02:59:22.257Z,2.88
2023-03-17T03:01:50.680Z,2.60
2023-03-17T03:04:20.262Z,2.60
2023-03-17T03:06:48.635Z,2.72
2023-03-17T03:09:17.788Z,2.50
2023-03-17T03:11:47.781Z,2.60
2023-03-17T03:14:16.194Z,2.78
2023-03-17T03:16:44.607Z,2.47
2023-03-17T03:19:12.821Z,2.63
2023-03-17T03:21:40.856Z,2.63
2023-03-17T03:24:09.310Z,2.40
2023-03-17T03:26:37.317Z,2.38
2023-03-17T03:29:06.855Z,2.58
2023-03-17T03:31:34.842Z,2.65
2023-03-17T03:34:02.831Z,2.45
2023-03-17T03:36:30.855Z,2.70
2023-03-17T03:38:59.758Z,2.47
2023-03-17T03:41:28.157Z,2.80
2023-03-17T03:43:56.142Z,2.58
2023-03-17T03:46:26.583Z,3.00
2023-03-17T03:48:55.182Z,2.75
2023-03-17T03:51:23.191Z,2.53
2023-03-17T03:53:51.131Z,2.63
2023-03-17T03:56:19.194Z,2.40
2023-03-17T03:58:47.229Z,2.70
2023-03-17T04:01:15.371Z,2.45
2023-03-17T04:03:46.970Z,2.70
2023-03-17T04:06:16.142Z,2.67
2023-03-17T04:08:44.172Z,2.80
2023-03-17T04:11:12.241Z,2.78
2023-03-17T04:13:40.188Z,2.67
2023-03-17T04:16:09.178Z,2.92
2023-03-17T04:18:37.325Z,2.70
2023-03-17T04:21:08.270Z,2.63
2023-03-17T04:23:36.277Z,2.90
2023-03-17T04:26:04.247Z,2.50
2023-03-17T04:28:32.371Z,2.90
2023-03-17T04:31:00.581Z,2.65
2023-03-17T04:33:28.711Z,2.80
2023-03-17T04:35:56.958Z,2.70
2023-03-17T04:38:26.623Z,2.80
2023-03-17T04:40:54.611Z,2.80
2023-03-17T04:43:22.594Z,2.75
2023-03-17T04:45:50.888Z,3.00
2023-03-17T04:48:18.930Z,3.00
2023-03-17T04:50:47.871Z,2.78
2023-03-17T04:53:15.996Z,2.83
2023-03-17T04:55:46.081Z,3.00
2023-03-17T04:58:29.596Z,2.78
2023-03-17T05:00:58.781Z,3.30
2023-03-17T05:03:28.513Z,3.13
2023-03-17T05:05:57.363Z,3.28
2023-03-17T05:08:26.180Z,2.85
2023-03-17T05:10:56.025Z,3.20
2023-03-17T05:13:24.600Z,2.97
2023-03-17T05:15:54.639Z,3.10
2023-03-17T05:18:24.764Z,3.45
2023-03-17T05:20:53.468Z,3.30
2023-03-17T05:23:22.223Z,3.60
2023-03-17T05:25:50.525Z,3.25
2023-03-17T05:28:20.797Z,3.30
2023-03-17T05:30:50.166Z,3.70
2023-03-17T05:33:18.619Z,3.20
2023-03-17T05:35:47.290Z,2.85
2023-03-17T05:38:16.363Z,3.20
2023-03-17T05:40:44.983Z,3.17
2023-03-17T05:43:13.094Z,3.28
2023-03-17T05:45:43.023Z,3.25
2023-03-17T05:48:12.366Z,3.42
2023-03-17T05:50:41.589Z,3.22
2023-03-17T05:53:09.747Z,3.22
2023-03-17T05:55:37.796Z,2.97
2023-03-17T05:58:06.600Z,3.22
2023-03-17T06:00:35.712Z,3.45
2023-03-17T06:03:06.132Z,3.00
2023-03-17T06:05:34.100Z,3.78
2023-03-17T06:08:02.426Z,3.03
2023-03-17T06:10:30.684Z,3.53
2023-03-17T06:13:01.172Z,3.25
2023-03-17T06:15:31.100Z,3.10
2023-03-17T06:17:59.455Z,3.63
2023-03-17T06:20:28.849Z,3.10
2023-03-17T06:23:04.417Z,3.10
2023-03-17T06:25:34.143Z,3.45
2023-03-17T06:28:03.801Z,3.58
2023-03-17T06:30:32.922Z,3.85
2023-03-17T06:33:01.458Z,3.60
2023-03-17T06:35:31.361Z,3.40
2023-03-17T06:37:59.720Z,3.45
2023-03-17T06:40:27.948Z,3.35
2023-03-17T06:42:56.623Z,3.55
2023-03-17T06:45:24.982Z,4.05
2023-03-17T06:47:53.273Z,3.75
2023-03-17T06:50:21.669Z,3.58
2023-03-17T06:52:51.509Z,3.70
2023-03-17T06:55:21.342Z,3.40
2023-03-17T06:57:51.187Z,3.85
2023-03-17T07:00:21.002Z,3.65
2023-03-17T07:02:49.535Z,3.63
2023-03-17T07:05:17.953Z,3.45
2023-03-17T07:07:46.185Z,3.60
2023-03-17T07:10:17.166Z,4.10
2023-03-17T07:12:45.334Z,3.83
2023-03-17T07:15:14.002Z,3.97
2023-03-17T07:17:42.513Z,4.22
2023-03-17T07:20:12.084Z,3.92
2023-03-17T07:22:40.317Z,4.00
2023-03-17T07:25:10.089Z,3.50
2023-03-17T07:27:39.950Z,3.47
2023-03-17T07:30:09.379Z,3.78
2023-03-17T07:32:37.700Z,3.50
2023-03-17T07:35:07.415Z,3.83
2023-03-17T07:37:35.524Z,3.42
2023-03-17T07:40:03.588Z,3.97
2023-03-17T07:42:31.622Z,4.30
2023-03-17T07:45:01.186Z,5.88
2023-03-17T07:47:29.762Z,4.65
2023-03-17T07:49:57.919Z,4.32
2023-03-17T07:52:26.045Z,4.50
2023-03-17T07:54:54.557Z,4.75
2023-03-17T07:57:23.283Z,4.32
2023-03-17T07:59:51.819Z,5.10
2023-03-17T08:02:21.525Z,4.30
2023-03-17T08:04:50.197Z,4.50
2023-03-17T08:07:18.516Z,4.22
2023-03-17T08:09:46.981Z,4.30
2023-03-17T08:12:15.972Z,4.90
2023-03-17T08:14:44.254Z,4.80
2023-03-17T08:17:13.511Z,4.40
2023-03-17T08:19:43.062Z,4.28
2023-03-17T08:22:12.417Z,4.68
2023-03-17T08:24:42.977Z,4.75
2023-03-17T08:27:11.184Z,5.15
2023-03-17T08:29:39.604Z,4.65
2023-03-17T08:32:08.785Z,4.43
2023-03-17T08:34:36.997Z,5.13
2023-03-17T08:37:09.387Z,5.30
2023-03-17T08:39:39.407Z,4.65
2023-03-17T08:42:08.210Z,4.63
2023-03-17T08:44:36.275Z,4.93
2023-03-17T08:47:04.724Z,5.80
2023-03-17T08:49:36.628Z,5.47
2023-03-17T08:52:06.853Z,4.68
2023-03-17T08:54:36.140Z,4.72
2023-03-17T08:57:04.513Z,4.70
2023-03-17T08:59:32.759Z,5.57
2023-03-17T09:02:01.053Z,4.90
2023-03-17T09:04:29.044Z,4.68
2023-03-17T09:07:04.780Z,4.80
2023-03-17T09:09:35.518Z,4.28
2023-03-17T09:12:06.347Z,4.80
2023-03-17T09:14:42.733Z,4.68
2023-03-17T09:17:11.859Z,5.50
2023-03-17T09:19:40.432Z,5.18
2023-03-17T09:22:09.100Z,5.15
2023-03-17T09:24:38.813Z,5.63
2023-03-17T09:27:07.453Z,5.68
2023-03-17T09:29:35.720Z,5.38
2023-03-17T09:32:03.756Z,5.43
2023-03-17T09:34:31.817Z,5.38
2023-03-17T09:37:00.039Z,5.60
2023-03-17T09:39:28.554Z,5.30
2023-03-17T09:42:09.601Z,5.47
2023-03-17T09:45:12.309Z,5.57
2023-03-17T09:47:57.303Z,5.40
2023-03-17T09:50:28.024Z,4.88
2023-03-17T09:52:58.454Z,5.20
2023-03-17T09:55:30.045Z,5.13
2023-03-17T09:58:00.889Z,5.40
2023-03-17T10:00:31.134Z,5.25
2023-03-17T10:03:01.491Z,4.72
2023-03-17T10:05:31.898Z,5.25
2023-03-17T10:08:15.783Z,5.25
2023-03-17T10:10:55.262Z,5.50
2023-03-17T10:18:45.082Z,5.15
2023-03-17T10:21:18.694Z,5.00
2023-03-17T10:23:47.506Z,5.20
2023-03-17T10:26:27.646Z,5.53
2023-03-17T10:28:57.098Z,5.25
2023-03-17T10:31:30.825Z,4.68
2023-03-17T10:34:05.325Z,5.10
2023-03-17T10:36:36.518Z,5.25
2023-03-17T10:39:07.204Z,5.10
2023-03-17T10:41:37.691Z,6.00
2023-03-17T10:44:10.332Z,5.22
2023-03-17T10:46:40.195Z,5.47
2023-03-17T10:49:10.844Z,5.22
2023-03-17T10:51:40.587Z,5.53
2023-03-17T10:54:11.333Z,5.63
2023-03-17T10:56:42.429Z,5.15
2023-03-17T10:59:19.641Z,5.65
2023-03-17T11:01:53.099Z,5.53
2023-03-17T11:04:32.971Z,5.55
2023-03-17T11:07:07.110Z,5.45
2023-03-17T11:09:37.706Z,5.93
2023-03-17T11:12:08.789Z,6.25
2023-03-17T11:14:38.090Z,5.63
2023-03-17T11:17:18.197Z,5.70
2023-03-17T11:19:55.045Z,6.57
2023-03-17T11:22:30.432Z,5.85
2023-03-17T11:25:06.406Z,6.00
2023-03-17T11:27:37.480Z,6.18
2023-03-17T11:30:17.927Z,6.60
2023-03-17T11:32:52.574Z,6.20
2023-03-17T11:35:34.358Z,6.32
2023-03-17T11:38:21.189Z,5.80
2023-03-17T11:41:08.976Z,6.28
2023-03-17T11:43:45.365Z,6.75
2023-03-17T11:46:20.199Z,6.55
2023-03-17T11:48:57.319Z,6.18
2023-03-17T11:51:32.001Z,5.75
2023-03-17T11:54:10.872Z,5.75
2023-03-17T11:56:44.086Z,6.40
2023-03-17T11:59:26.979Z,6.40
2023-03-17T12:02:04.741Z,6.22
2023-03-17T12:04:37.607Z,6.05
2023-03-17T12:07:12.553Z,6.95
2023-03-17T12:09:45.585Z,6.85
2023-03-17T12:12:17.218Z,6.45
2023-03-17T12:14:49.475Z,6.20
2023-03-17T12:20:08.732Z,6.03
2023-03-17T12:22:41.964Z,5.82
2023-03-17T12:25:18.065Z,5.53
2023-03-17T12:27:53.601Z,6.10
2023-03-17T12:30:32.965Z,6.03
2023-03-17T12:33:11.245Z,6.85
2023-03-17T12:35:39.534Z,5.93
2023-03-17T12:38:12.663Z,5.95
2023-03-17T12:40:58.727Z,6.32
2023-03-17T12:43:48.606Z,6.20
2023-03-17T12:46:30.930Z,5.53
2023-03-17T12:51:52.571Z,5.90
2023-03-17T12:54:26.399Z,5.35
2023-03-17T12:57:01.010Z,6.18
2023-03-17T12:59:31.136Z,5.82
2023-03-17T13:02:06.301Z,6.22
2023-03-17T13:04:37.584Z,5.55
2023-03-17T13:07:12.907Z,5.60
2023-03-17T13:09:49.781Z,5.70
2023-03-17T13:12:52.491Z,5.75
2023-03-17T13:15:30.808Z,5.80
2023-03-17T13:18:24.818Z,6.43
2023-03-17T13:21:12.029Z,5.65
2023-03-17T13:23:44.923Z,6.20
2023-03-17T13:26:14.170Z,5.80
2023-03-17T13:28:45.388Z,5.35
2023-03-17T13:31:30.679Z,5.63
2023-03-17T13:34:04.084Z,5.70
2023-03-17T13:36:39.686Z,5.15
2023-03-17T13:39:36.503Z,5.50
2023-03-17T13:42:19.057Z,5.38
2023-03-17T13:45:17.910Z,5.53
2023-03-17T13:47:47.204Z,5.32
2023-03-17T13:50:17.625Z,5.32
2023-03-17T13:52:55.743Z,5.47
2023-03-17T13:55:38.811Z,5.72
2023-03-17T13:58:34.472Z,5.30
2023-03-17T14:01:07.486Z,5.10
2023-03-17T14:03:41.680Z,5.25
2023-03-17T14:06:13.449Z,5.13
2023-03-17T14:08:48.250Z,5.00
2023-03-17T14:11:25.415Z,4.90
2023-03-17T14:14:06.051Z,4.97
2023-03-17T14:16:37.392Z,5.38
2023-03-17T14:19:17.574Z,5.20
2023-03-17T14:21:45.701Z,4.60
2023-03-17T14:24:22.524Z,5.63
2023-03-17T14:26:51.269Z,5.45
2023-03-17T14:29:21.560Z,5.13
2023-03-17T14:31:52.319Z,5.10
2023-03-17T14:34:23.179Z,5.25
2023-03-17T14:36:52.963Z,4.55
2023-03-17T14:39:33.330Z,4.57
2023-03-17T14:42:06.688Z,5.40
2023-03-17T14:44:38.514Z,4.97
2023-03-17T14:47:13.561Z,4.70
2023-03-17T14:49:41.744Z,4.95
2023-03-17T14:52:19.559Z,5.55
2023-03-17T14:54:52.140Z,6.22
2023-03-17T14:57:23.737Z,5.70
2023-03-17T15:00:00.423Z,5.72
2023-03-17T15:02:35.606Z,5.97
2023-03-17T15:05:25.378Z,6.10
2023-03-17T15:07:53.603Z,5.68
2023-03-17T15:10:25.872Z,6.70
2023-03-17T15:13:02.424Z,6.10
2023-03-17T15:15:33.567Z,5.93
2023-03-17T15:18:06.022Z,6.07
2023-03-17T15:20:35.468Z,6.78
2023-03-17T15:23:06.637Z,6.28
2023-03-17T15:25:39.354Z,6.78
2023-03-17T15:28:12.300Z,6.32
2023-03-17T15:30:47.641Z,6.65
2023-03-17T15:33:22.417Z,6.55
2023-03-17T15:35:51.360Z,6.47
2023-03-17T15:38:19.596Z,6.00
2023-03-17T15:40:49.839Z,5.93
2023-03-17T15:43:19.006Z,5.63
2023-03-17T15:45:47.352Z,6.20
2023-03-17T15:48:21.557Z,5.47
2023-03-17T15:50:50.531Z,5.88
2023-03-17T15:53:19.532Z,6.25
2023-03-17T15:55:49.219Z,5.82
2023-03-17T15:58:17.256Z,5.90
2023-03-17T16:00:51.424Z,5.57
2023-03-17T16:03:25.775Z,5.85
2023-03-17T16:05:54.187Z,5.45
2023-03-17T16:08:22.483Z,5.78
2023-03-17T16:10:52.820Z,5.97
2023-03-17T16:13:21.029Z,5.65
2023-03-17T16:15:55.127Z,6.25
2023-03-17T16:18:32.009Z,5.68
2023-03-17T16:20:59.998Z,5.80
2023-03-17T16:23:32.158Z,5.80
2023-03-17T16:26:14.143Z,6.10
2023-03-17T16:28:44.462Z,7.53
2023-03-17T16:31:25.015Z,6.85
2023-03-17T16:33:54.393Z,6.18
2023-03-17T16:36:24.566Z,7.47
2023-03-17T16:38:52.896Z,6.97
2023-03-17T16:41:25.055Z,7.10
2023-03-17T16:46:23.600Z,6.55
2023-03-17T16:48:52.177Z,6.95
2023-03-17T16:51:20.182Z,6.72
2023-03-17T16:53:48.505Z,7.53
2023-03-17T16:56:19.528Z,7.10
2023-03-17T16:58:49.772Z,7.03
2023-03-17T17:01:20.852Z,7.35
2023-03-17T17:03:49.415Z,8.95
2023-03-17T17:06:18.531Z,7.20
2023-03-17T17:08:47.785Z,8.07
2023-03-17T17:11:16.754Z,7.78
2023-03-17T17:13:46.610Z,7.43
2023-03-17T17:16:23.610Z,7.95
2023-03-17T17:18:51.797Z,8.15
2023-03-17T17:21:20.180Z,7.85
2023-03-17T17:23:48.218Z,7.95
2023-03-17T17:26:16.207Z,7.90
2023-03-17T17:28:44.234Z,7.90
2023-03-17T17:31:12.593Z,8.25
2023-03-17T17:33:42.257Z,8.65
2023-03-17T17:36:15.585Z,8.05
2023-03-17T17:38:44.545Z,8.88
2023-03-17T17:41:13.396Z,8.07
2023-03-17T17:43:41.924Z,8.07
2023-03-17T17:46:12.813Z,7.65
2023-03-17T17:48:42.229Z,7.32
2023-03-17T17:51:11.340Z,6.93
2023-03-17T17:53:39.305Z,7.07
2023-03-17T17:56:08.334Z,7.13
2023-03-17T17:58:36.285Z,7.28
2023-03-17T18:01:05.485Z,7.50
2023-03-17T18:03:33.902Z,7.65
2023-03-17T18:06:03.362Z,7.32
2023-03-17T18:08:31.361Z,7.20
2023-03-17T18:10:59.350Z,7.43
2023-03-17T18:13:27.378Z,7.00
2023-03-17T18:15:55.379Z,7.22
2023-03-17T18:18:23.530Z,7.05
2023-03-17T18:20:53.921Z,7.00
2023-03-17T18:23:23.553Z,6.35
2023-03-17T18:25:52.020Z,7.82
2023-03-17T18:28:19.986Z,6.53
2023-03-17T18:30:47.982Z,7.88
2023-03-17T18:33:19.617Z,7.50
2023-03-17T18:35:50.928Z,7.63
2023-03-17T18:38:19.100Z,8.10
2023-03-17T18:40:48.491Z,7.78
2023-03-17T18:43:16.386Z,6.68
2023-03-17T18:45:44.702Z,6.68
2023-03-17T18:48:12.731Z,7.00
2023-03-17T18:50:40.835Z,6.55
2023-03-17T18:53:08.832Z,6.60
2023-03-17T18:55:37.061Z,6.75
2023-03-17T18:58:07.693Z,6.32
2023-03-17T19:00:36.206Z,6.57
2023-03-17T19:03:04.295Z,6.88
2023-03-17T19:05:32.297Z,10.68
2023-03-17T19:08:00.246Z,10.85
2023-03-17T19:10:28.235Z,7.30
2023-03-17T19:12:58.709Z,7.63
2023-03-17T19:15:28.031Z,6.93
2023-03-17T19:17:56.164Z,6.65
2023-03-17T19:20:24.087Z,6.40
2023-03-17T19:22:53.222Z,6.45
2023-03-17T19:25:21.441Z,6.75
2023-03-17T19:27:49.687Z,6.97
2023-03-17T19:30:18.835Z,6.55
2023-03-17T19:32:48.207Z,6.82
2023-03-17T19:35:16.612Z,7.93
2023-03-17T19:37:44.534Z,6.80
2023-03-17T19:40:13.617Z,7.05
2023-03-17T19:42:41.607Z,6.72
2023-03-17T19:45:10.615Z,6.72
2023-03-17T19:47:38.605Z,6.38
2023-03-17T19:50:09.825Z,7.25
2023-03-17T19:52:37.793Z,6.13
2023-03-17T19:55:08.262Z,6.80
2023-03-17T19:57:36.520Z,6.47
2023-03-17T20:00:05.566Z,6.72
2023-03-17T20:02:33.487Z,7.05
2023-03-17T20:05:01.426Z,6.72
2023-03-17T20:07:32.723Z,7.07
2023-03-17T20:10:01.325Z,7.73
2023-03-17T20:12:32.307Z,6.80
2023-03-17T20:15:01.398Z,7.25
2023-03-17T20:17:29.487Z,7.60
2023-03-17T20:19:57.511Z,7.25
2023-03-17T20:22:25.940Z,7.65
2023-03-17T20:24:56.018Z,8.43
2023-03-17T20:27:24.639Z,8.40
2023-03-17T20:29:52.662Z,9.65
2023-03-17T20:32:20.901Z,9.75
2023-03-17T20:34:49.438Z,8.95
2023-03-17T20:37:17.841Z,9.93
2023-03-17T20:39:45.958Z,9.38
2023-03-17T20:42:15.279Z,9.68
2023-03-17T20:44:43.326Z,9.75
2023-03-17T20:47:11.512Z,9.40
2023-03-17T20:49:39.427Z,9.80
2023-03-17T20:52:08.586Z,10.02
2023-03-17T20:54:36.516Z,9.75
2023-03-17T20:57:04.742Z,9.65
2023-03-17T20:59:34.505Z,10.30
2023-03-17T21:02:03.385Z,11.00
2023-03-17T21:04:31.387Z,10.65
2023-03-17T21:06:59.378Z,10.88
2023-03-17T21:09:27.333Z,9.95
2023-03-17T21:11:55.331Z,11.10
2023-03-17T21:14:23.304Z,10.85
2023-03-17T21:16:52.758Z,10.80
2023-03-17T21:19:20.745Z,11.23
2023-03-17T21:21:48.659Z,12.05
2023-03-17T21:24:27.440Z,11.70
2023-03-17T21:26:55.553Z,11.43
2023-03-17T21:29:23.550Z,11.23
2023-03-17T21:31:53.172Z,11.68
2023-03-17T21:34:21.181Z,11.10
2023-03-17T21:36:49.127Z,10.77
2023-03-17T21:39:17.693Z,11.40
2023-03-17T21:41:46.173Z,11.38
2023-03-17T21:44:15.893Z,11.25
2023-03-17T21:46:44.310Z,11.30
2023-03-17T21:49:16.086Z,11.30
2023-03-17T21:51:44.387Z,12.18
2023-03-17T21:54:12.573Z,12.65
2023-03-17T21:56:41.479Z,12.52
2023-03-17T21:59:11.009Z,11.93
2023-03-17T22:01:39.612Z,12.15
2023-03-17T22:04:08.364Z,13.27
2023-03-17T22:06:38.058Z,12.88
2023-03-17T22:09:06.416Z,12.60
2023-03-17T22:11:34.442Z,14.15
2023-03-17T22:14:02.427Z,14.02
2023-03-17T22:16:30.677Z,13.30
2023-03-17T22:18:58.950Z,12.25
2023-03-17T22:21:28.791Z,12.93
2023-03-17T22:23:58.117Z,14.25
2023-03-17T22:26:27.859Z,12.80
2023-03-17T22:28:56.350Z,12.43
2023-03-17T22:31:27.612Z,13.13
2023-03-17T22:33:59.113Z,14.25
2023-03-17T22:36:27.915Z,13.33
2023-03-17T22:38:58.449Z,13.43
2023-03-17T22:41:28.354Z,15.05
2023-03-17T22:43:57.466Z,14.65
2023-03-17T22:46:26.070Z,13.70
2023-03-17T22:48:54.409Z,15.40
2023-03-17T22:51:24.736Z,16.50
2023-03-17T22:53:53.004Z,15.55
2023-03-17T22:56:22.809Z,16.50
2023-03-17T22:58:50.849Z,15.30
2023-03-17T23:01:20.323Z,17.17
2023-03-17T23:03:48.242Z,16.45
2023-03-17T23:06:16.261Z,17.27
2023-03-17T23:08:45.839Z,17.15
2023-03-17T23:11:16.026Z,17.73
2023-03-17T23:13:46.782Z,19.58
2023-03-17T23:16:15.582Z,17.85
2023-03-17T23:18:46.623Z,18.70
2023-03-17T23:21:22.263Z,17.88
2023-03-17T23:23:50.636Z,18.13
2023-03-17T23:26:18.757Z,17.30
2023-03-17T23:28:48.611Z,18.45
2023-03-17T23:31:19.192Z,19.90
2023-03-17T23:33:47.614Z,20.67
2023-03-17T23:36:16.193Z,20.77
2023-03-17T23:38:45.663Z,19.27
2023-03-17T23:41:14.653Z,17.77
2023-03-17T23:43:44.097Z,16.67
2023-03-17T23:46:14.833Z,19.15
2023-03-17T23:48:44.546Z,17.25
2023-03-17T23:51:14.467Z,18.65
2023-03-17T23:53:43.006Z,18.80
2023-03-17T23:56:12.989Z,20.63
2023-03-17T23:58:42.591Z,19.52
